Aeroporto :
LOGIN :

Iscrizione | Disclaimer

   EN    FR    IT 

 










Sommario :    VFR   VFR Marginale   IFR   IFR Intensivo   IFR Molto Intensivo
Visibilità : 
Base nubi : 
>= 8 km
>= 3000ft
5 / 8 km
1000 / 3000 ft
1500m / 5 km
500 / 1000 ft
800 / 1500m
200 / 500 ft
< 800m
< 200 ft
Simboli :   Temporali  Nebbia  Neve Forte  Precipitazioni Forti  Vento > 20 kt
SIGMETs :   Varie  Temporali  Ghiacco  Turbolenza  Onda orograficha  Ceneri Vulcaniche






- Altitudine del aeroporto : 465 ft
- Codice IATA : LEJ


EDDP - Leipzig Halle

ULTIMO METAR :
  • 141420Z 09009KT CAVOK 07/02 Q1007 NOSIG

METARs OBSOLETI :
  • 141350Z 09010KT CAVOK 07/02 Q1007 NOSIG
  • 141320Z 11012KT CAVOK 07/01 Q1007 NOSIG
  • 141250Z 11011KT CAVOK 08/02 Q1008 NOSIG
  • 141220Z 10009KT 080V140 CAVOK 08/02 Q1008 NOSIG
  • 141150Z 12011KT CAVOK 08/02 Q1008 NOSIG

TAF TAF EDDP
Valido dal 14 a 12 ore il 15 a 12 ore UTC


141100Z 1412/1512 14010KT 9999 SCT045
BECMG 1412/1414 07011KT
BECMG 1422/1501 BKN010
TEMPO 1500/1510 BKN007
PROB40
TEMPO 1503/1508 3000 BR BKN004
BECMG 1510/1512 SCT013



MetMap, La meteo Aeronautica in un colpo d'occhio ! - Copyright ORBIFLY Dicembre 2007 - Disclaimer

ORBIFLY MET'MAP TEAM :

Programmazione e sviluppo : Alexandra Zaïnal
Concezione e sviluppo : Baudouin d'Aumeries
Co-Programmazione e sviluppo : Marc-Olivier Méhu
Supporto tecnico e logistico : Manuel Goepfert
Aiuto per la traduzione : Arnaldo La Scala

Contatto : metmap@orbifly.com




FONTI E CREDITI :

   NOAA